createdAt,value
2023-04-23T04:59:32.062Z,45.00
2023-04-23T05:00:30.074Z,50.62
2023-04-23T05:01:30.212Z,50.62
2023-04-23T05:02:30.134Z,67.50
2023-04-23T05:03:30.208Z,73.12
2023-04-23T05:04:30.046Z,78.75
2023-04-23T05:05:30.003Z,118.12
2023-04-23T05:06:30.711Z,140.62
2023-04-23T05:07:29.972Z,135.00
2023-04-23T05:08:29.982Z,140.62
2023-04-23T05:09:29.938Z,129.38
2023-04-23T05:10:29.931Z,140.62
2023-04-23T05:11:31.277Z,157.50
2023-04-23T05:12:29.936Z,140.62
2023-04-23T05:13:29.897Z,191.25
2023-04-23T05:14:29.963Z,180.00
2023-04-23T05:15:29.955Z,225.00
2023-04-23T05:16:29.905Z,241.88
2023-04-23T05:17:29.856Z,275.62
2023-04-23T05:18:29.849Z,253.12
2023-04-23T05:19:30.122Z,191.25
2023-04-23T05:20:29.850Z,247.50
2023-04-23T05:21:29.801Z,196.88
2023-04-23T05:22:29.791Z,185.62
2023-04-23T05:23:29.740Z,106.88
2023-04-23T05:24:29.743Z,236.25
2023-04-23T05:25:29.707Z,258.75
2023-04-23T05:26:29.776Z,112.50
2023-04-23T05:27:29.738Z,208.12
2023-04-23T05:28:29.728Z,106.88
2023-04-23T05:29:29.717Z,106.88
2023-04-23T05:30:29.659Z,101.25
2023-04-23T05:31:29.688Z,101.25
2023-04-23T05:32:30.765Z,101.25
2023-04-23T05:33:33.493Z,101.25
2023-04-23T05:34:30.595Z,95.62
2023-04-23T05:35:29.619Z,95.62
2023-04-23T05:36:29.604Z,90.00
2023-04-23T05:37:29.527Z,84.38
2023-04-23T05:38:29.572Z,84.38
2023-04-23T05:39:29.532Z,84.38
2023-04-23T05:40:29.543Z,73.12
2023-04-23T05:41:29.492Z,73.12
2023-04-23T05:42:29.497Z,73.12
2023-04-23T05:43:29.482Z,67.50
2023-04-23T05:44:29.857Z,67.50
2023-04-23T05:45:29.468Z,67.50
2023-04-23T05:46:29.617Z,67.50
2023-04-23T05:47:29.921Z,67.50
2023-04-23T05:48:29.452Z,67.50
2023-04-23T05:49:29.992Z,67.50
2023-04-23T05:50:29.368Z,67.50
2023-04-23T05:51:29.402Z,67.50
2023-04-23T05:52:29.342Z,67.50
2023-04-23T05:53:29.304Z,61.88
2023-04-23T05:54:29.316Z,61.88
2023-04-23T05:55:29.330Z,61.88
2023-04-23T05:56:29.307Z,56.25
2023-04-23T05:57:29.238Z,56.25
2023-04-23T05:58:29.279Z,56.25
2023-04-23T05:59:29.258Z,56.25
2023-04-23T06:00:29.310Z,50.62
2023-04-23T06:01:29.202Z,45.00
2023-04-23T06:02:29.313Z,45.00
2023-04-23T06:03:29.374Z,39.38
2023-04-23T06:04:29.466Z,39.38
2023-04-23T06:05:29.225Z,39.38
2023-04-23T06:06:29.147Z,33.75
2023-04-23T06:07:29.124Z,33.75
2023-04-23T06:08:29.120Z,33.75
2023-04-23T06:09:29.212Z,33.75
2023-04-23T06:10:29.113Z,39.38
2023-04-23T06:11:29.069Z,45.00
2023-04-23T06:12:29.070Z,50.62
2023-04-23T06:13:29.021Z,56.25
2023-04-23T06:14:29.033Z,56.25
2023-04-23T06:15:29.011Z,61.88
2023-04-23T06:16:29.112Z,73.12
2023-04-23T06:17:29.029Z,90.00
2023-04-23T06:18:28.986Z,106.88
2023-04-23T06:19:28.934Z,123.75
2023-04-23T06:20:28.945Z,123.75
2023-04-23T06:21:28.928Z,123.75
2023-04-23T06:22:28.929Z,123.75
2023-04-23T06:23:28.896Z,123.75
2023-04-23T06:24:28.866Z,123.75
2023-04-23T06:25:28.873Z,129.38
2023-04-23T06:26:28.832Z,129.38
2023-04-23T06:27:28.828Z,129.38
2023-04-23T06:28:28.822Z,129.38
2023-04-23T06:29:28.827Z,123.75
2023-04-23T06:30:28.803Z,118.12
2023-04-23T06:31:28.779Z,118.12
2023-04-23T06:32:28.780Z,118.12
2023-04-23T06:33:28.743Z,123.75
2023-04-23T06:34:28.724Z,129.38
2023-04-23T06:35:28.729Z,135.00
2023-04-23T06:36:28.701Z,140.62
2023-04-23T06:37:29.821Z,146.25
2023-04-23T06:38:28.847Z,146.25
2023-04-23T06:39:28.748Z,140.62
2023-04-23T06:40:28.692Z,129.38
2023-04-23T06:41:28.667Z,118.12
2023-04-23T06:42:28.630Z,112.50
2023-04-23T06:43:28.617Z,112.50
2023-04-23T06:44:28.600Z,118.12
2023-04-23T06:45:28.588Z,123.75
2023-04-23T06:46:28.590Z,135.00
2023-04-23T06:47:28.533Z,135.00
2023-04-23T06:48:28.514Z,135.00
2023-04-23T06:49:28.572Z,135.00
2023-04-23T06:50:28.583Z,129.38
2023-04-23T06:51:28.622Z,123.75
2023-04-23T06:52:29.255Z,129.38
2023-04-23T06:53:28.476Z,129.38
2023-04-23T06:54:28.441Z,140.62
2023-04-23T06:55:28.544Z,146.25
2023-04-23T06:56:28.705Z,151.88
2023-04-23T06:57:28.595Z,157.50
2023-04-23T06:58:28.497Z,163.12
2023-04-23T06:59:29.225Z,174.38
2023-04-23T07:00:28.561Z,180.00
2023-04-23T07:01:29.818Z,185.62
2023-04-23T07:02:28.382Z,180.00
2023-04-23T07:03:28.653Z,180.00
2023-04-23T07:04:28.345Z,174.38
2023-04-23T07:05:28.426Z,174.38
2023-04-23T07:06:28.422Z,185.62
2023-04-23T07:07:28.456Z,236.25
2023-04-23T07:08:29.905Z,174.38
2023-04-23T07:09:28.476Z,247.50
2023-04-23T07:10:28.371Z,157.50
2023-04-23T07:11:28.241Z,168.75
2023-04-23T07:12:28.280Z,191.25
2023-04-23T07:13:28.227Z,196.88
2023-04-23T07:14:28.493Z,236.25
2023-04-23T07:15:28.173Z,241.88
2023-04-23T07:16:28.153Z,247.50
2023-04-23T07:17:28.130Z,253.12
2023-04-23T07:18:28.238Z,253.12
2023-04-23T07:19:28.089Z,247.50
2023-04-23T07:20:28.161Z,236.25
2023-04-23T07:21:28.222Z,236.25
2023-04-23T07:22:30.065Z,230.62
2023-04-23T07:23:28.109Z,225.00
2023-04-23T07:24:28.110Z,230.62
2023-04-23T07:25:28.052Z,247.50
2023-04-23T07:26:28.361Z,236.25
2023-04-23T07:27:28.022Z,202.50
2023-04-23T07:28:28.044Z,208.12
2023-04-23T07:29:28.036Z,225.00
2023-04-23T07:30:27.987Z,236.25
2023-04-23T07:31:28.163Z,253.12
2023-04-23T07:32:37.107Z,236.25
2023-04-23T07:33:27.925Z,253.12
2023-04-23T07:34:27.892Z,275.62
2023-04-23T07:35:27.924Z,270.00
2023-04-23T07:36:27.867Z,275.62
2023-04-23T07:37:27.878Z,247.50
2023-04-23T07:38:27.865Z,247.50
2023-04-23T07:39:27.871Z,230.62
2023-04-23T07:40:27.810Z,225.00
2023-04-23T07:41:27.795Z,236.25
2023-04-23T07:42:27.804Z,225.00
2023-04-23T07:43:27.766Z,225.00
2023-04-23T07:44:27.791Z,191.25
2023-04-23T07:45:27.809Z,202.50
2023-04-23T07:46:27.799Z,241.88
2023-04-23T07:47:27.791Z,270.00
2023-04-23T07:48:28.143Z,264.38
2023-04-23T07:49:27.755Z,241.88
2023-04-23T07:50:27.685Z,196.88
2023-04-23T07:51:27.757Z,185.62
2023-04-23T07:52:27.729Z,208.12
2023-04-23T07:53:27.696Z,236.25
2023-04-23T07:54:28.609Z,241.88
2023-04-23T07:55:27.640Z,241.88
2023-04-23T07:56:27.632Z,241.88
2023-04-23T07:57:27.619Z,258.75
2023-04-23T07:58:27.670Z,225.00
2023-04-23T07:59:27.592Z,196.88
2023-04-23T08:00:27.628Z,225.00
2023-04-23T08:01:27.636Z,230.62
2023-04-23T08:02:27.682Z,241.88
2023-04-23T08:03:27.749Z,275.62
2023-04-23T08:04:27.773Z,270.00
2023-04-23T08:05:27.616Z,281.25
2023-04-23T08:06:27.590Z,309.38
2023-04-23T08:07:27.532Z,286.88
2023-04-23T08:08:29.295Z,202.50
2023-04-23T08:09:27.442Z,202.50
2023-04-23T08:10:27.435Z,208.12
2023-04-23T08:11:27.492Z,202.50
2023-04-23T08:12:27.523Z,208.12
2023-04-23T08:13:27.550Z,213.75
2023-04-23T08:14:27.394Z,236.25
2023-04-23T08:15:27.358Z,393.75
2023-04-23T08:16:27.430Z,360.00
2023-04-23T08:17:27.355Z,393.75
2023-04-23T08:18:27.370Z,185.62
2023-04-23T08:19:27.409Z,236.25
2023-04-23T08:20:27.316Z,241.88
2023-04-23T08:21:27.294Z,281.25
2023-04-23T08:22:27.320Z,292.50
2023-04-23T08:23:28.168Z,315.00
2023-04-23T08:24:27.274Z,326.25
2023-04-23T08:25:28.772Z,354.38
2023-04-23T08:26:27.223Z,326.25
2023-04-23T08:27:27.975Z,129.38
2023-04-23T08:28:27.210Z,270.00
2023-04-23T08:29:28.174Z,275.62
2023-04-23T08:30:27.172Z,281.25
2023-04-23T08:31:27.566Z,270.00
2023-04-23T08:32:27.151Z,253.12
2023-04-23T08:33:27.182Z,241.88
2023-04-23T08:34:27.254Z,236.25
2023-04-23T08:35:27.096Z,241.88
2023-04-23T08:36:27.055Z,253.12
2023-04-23T08:37:31.016Z,264.38
2023-04-23T08:38:27.171Z,286.88
2023-04-23T08:39:27.111Z,286.88
2023-04-23T08:40:27.049Z,270.00
2023-04-23T08:41:27.020Z,247.50
2023-04-23T08:42:27.030Z,264.38
2023-04-23T08:43:27.059Z,264.38
2023-04-23T08:44:26.978Z,247.50
2023-04-23T08:45:26.973Z,225.00
2023-04-23T08:48:01.751Z,168.75
2023-04-23T08:49:21.283Z,146.25
2023-04-23T08:49:52.143Z,275.62
2023-04-23T08:50:52.696Z,275.62
2023-04-23T08:51:52.113Z,298.12
2023-04-23T08:52:52.041Z,326.25
2023-04-23T08:53:52.107Z,337.50
2023-04-23T08:54:52.052Z,303.75
2023-04-23T08:55:52.314Z,292.50
2023-04-23T08:56:52.932Z,292.50
2023-04-23T08:57:52.032Z,309.38
2023-04-23T08:58:52.140Z,298.12
2023-04-23T08:59:51.971Z,281.25
2023-04-23T09:00:54.064Z,281.25
2023-04-23T09:01:51.983Z,286.88
2023-04-23T09:02:52.139Z,180.00
2023-04-23T09:03:53.074Z,185.62
2023-04-23T09:04:52.950Z,174.38
2023-04-23T09:05:52.663Z,270.00
2023-04-23T09:06:52.800Z,185.62
2023-04-23T09:07:51.843Z,191.25
2023-04-23T09:08:51.893Z,309.38
2023-04-23T09:09:51.808Z,298.12
2023-04-23T09:10:51.809Z,247.50
2023-04-23T09:11:54.656Z,230.62
2023-04-23T09:12:51.852Z,365.62
2023-04-23T09:13:51.883Z,388.12
2023-04-23T09:14:51.855Z,371.25
2023-04-23T09:15:51.745Z,292.50
2023-04-23T09:16:51.873Z,309.38
2023-04-23T09:17:51.763Z,225.00
2023-04-23T09:18:51.704Z,225.00
2023-04-23T09:19:51.699Z,236.25
2023-04-23T09:20:51.742Z,230.62
2023-04-23T09:21:51.692Z,241.88
2023-04-23T09:22:51.695Z,213.75
2023-04-23T09:23:51.647Z,202.50
2023-04-23T09:24:51.620Z,191.25
2023-04-23T09:25:51.622Z,309.38
2023-04-23T09:26:51.626Z,191.25
2023-04-23T09:27:51.612Z,180.00
2023-04-23T09:28:51.568Z,168.75
2023-04-23T09:29:51.570Z,180.00
2023-04-23T09:30:51.556Z,309.38
2023-04-23T09:31:51.851Z,213.75
2023-04-23T09:32:51.627Z,315.00
2023-04-23T09:33:51.535Z,219.38
2023-04-23T09:34:51.562Z,213.75
2023-04-23T09:35:51.490Z,230.62
2023-04-23T09:36:51.446Z,326.25
2023-04-23T09:37:51.508Z,337.50
2023-04-23T09:38:51.626Z,331.88
2023-04-23T09:39:51.468Z,236.25
2023-04-23T09:40:51.405Z,236.25
2023-04-23T09:41:51.430Z,253.12
2023-04-23T09:42:51.383Z,230.62
2023-04-23T09:43:51.457Z,219.38
2023-04-23T09:44:51.369Z,219.38
2023-04-23T09:45:51.402Z,225.00
2023-04-23T09:46:51.313Z,275.62
2023-04-23T09:47:51.393Z,219.38
2023-04-23T09:48:51.424Z,236.25
2023-04-23T09:49:51.403Z,247.50
2023-04-23T09:50:51.306Z,253.12
2023-04-23T09:51:51.320Z,270.00
2023-04-23T09:52:51.324Z,258.75
2023-04-23T09:53:51.229Z,275.62
2023-04-23T09:54:51.353Z,281.25
2023-04-23T09:55:51.204Z,281.25
2023-04-23T09:56:52.405Z,360.00
2023-04-23T09:57:51.258Z,354.38
2023-04-23T09:58:51.240Z,489.38
2023-04-23T09:59:55.026Z,478.12
2023-04-23T10:00:52.296Z,450.00
2023-04-23T10:01:51.515Z,444.38
2023-04-23T10:02:51.331Z,410.62
2023-04-23T10:03:51.335Z,393.75
2023-04-23T10:04:51.463Z,421.88
2023-04-23T10:06:01.301Z,421.88
2023-04-23T10:07:02.374Z,399.38
2023-04-23T10:07:52.047Z,388.12
2023-04-23T10:08:51.049Z,303.75
2023-04-23T10:09:51.025Z,309.38
2023-04-23T10:11:05.960Z,393.75
2023-04-23T10:11:51.997Z,337.50
2023-04-23T10:12:55.008Z,421.88
2023-04-23T10:13:51.090Z,309.38
2023-04-23T10:14:50.966Z,421.88
2023-04-23T10:15:50.978Z,399.38
2023-04-23T10:16:50.973Z,393.75
2023-04-23T10:17:51.079Z,399.38
2023-04-23T10:18:50.995Z,348.75
2023-04-23T10:19:50.947Z,309.38
2023-04-23T10:20:50.897Z,303.75
2023-04-23T10:21:56.186Z,315.00
2023-04-23T10:22:51.902Z,303.75
2023-04-23T10:23:50.849Z,326.25
2023-04-23T10:24:50.868Z,270.00
2023-04-23T10:25:50.796Z,275.62
2023-04-23T10:26:50.844Z,275.62
2023-04-23T10:27:54.335Z,264.38
2023-04-23T10:28:50.840Z,275.62
2023-04-23T10:29:50.755Z,315.00
2023-04-23T10:30:50.819Z,303.75
2023-04-23T10:31:50.775Z,320.62
2023-04-23T10:32:50.808Z,337.50
2023-04-23T10:33:58.228Z,343.12
2023-04-23T10:34:51.709Z,365.62
2023-04-23T10:35:51.358Z,382.50
2023-04-23T10:36:50.693Z,427.50
2023-04-23T10:37:50.702Z,438.75
2023-04-23T10:38:57.969Z,444.38
2023-04-23T10:39:51.635Z,472.50
2023-04-23T10:40:50.623Z,472.50
2023-04-23T10:41:50.623Z,483.75
2023-04-23T10:42:50.678Z,433.12
2023-04-23T10:43:50.580Z,483.75
2023-04-23T10:45:00.890Z,472.50
2023-04-23T10:45:51.748Z,416.25
2023-04-23T10:46:50.599Z,421.88
2023-04-23T10:47:50.714Z,444.38
2023-04-23T10:48:50.555Z,472.50
2023-04-23T10:49:50.467Z,523.12
2023-04-23T10:51:06.882Z,517.50
2023-04-23T10:52:50.469Z,360.00
2023-04-23T10:53:50.440Z,343.12
2023-04-23T10:54:50.529Z,331.88
2023-04-23T10:55:50.564Z,331.88
2023-04-23T10:56:50.476Z,354.38
2023-04-23T10:57:50.434Z,382.50
2023-04-23T10:58:50.476Z,450.00
2023-04-23T10:59:50.397Z,528.75
2023-04-23T11:00:50.402Z,556.88
2023-04-23T11:01:50.493Z,534.38
2023-04-23T11:02:50.472Z,523.12
2023-04-23T11:03:50.617Z,523.12
2023-04-23T11:04:50.458Z,489.38
2023-04-23T11:05:50.286Z,517.50
2023-04-23T11:06:50.386Z,545.62
2023-04-23T11:07:50.360Z,517.50
2023-04-23T11:08:51.407Z,500.62
2023-04-23T11:09:50.364Z,483.75
2023-04-23T11:10:50.270Z,461.25
2023-04-23T11:11:50.267Z,472.50
2023-04-23T11:12:50.419Z,472.50
2023-04-23T11:13:50.267Z,483.75
2023-04-23T11:14:50.269Z,489.38
2023-04-23T11:15:50.148Z,472.50
2023-04-23T11:16:50.432Z,495.00
2023-04-23T11:17:50.346Z,495.00
2023-04-23T11:18:50.288Z,495.00
2023-04-23T11:19:50.135Z,500.62
2023-04-23T11:20:50.114Z,517.50
2023-04-23T11:21:50.082Z,540.00
2023-04-23T11:22:50.186Z,540.00
2023-04-23T11:23:50.137Z,573.75
2023-04-23T11:24:50.964Z,506.25
2023-04-23T11:25:50.126Z,500.62
2023-04-23T11:26:50.108Z,466.88
2023-04-23T11:27:50.014Z,472.50
2023-04-23T11:28:49.998Z,466.88
2023-04-23T11:29:50.049Z,444.38
2023-04-23T11:30:49.989Z,438.75
2023-04-23T11:32:01.555Z,472.50
2023-04-23T11:32:51.166Z,450.00
2023-04-23T11:33:49.931Z,450.00
2023-04-23T11:34:49.918Z,455.62
2023-04-23T11:35:49.902Z,455.62
2023-04-23T11:36:49.890Z,461.25
2023-04-23T11:37:56.579Z,478.12
2023-04-23T11:38:49.899Z,483.75
2023-04-23T11:39:59.537Z,495.00
2023-04-23T11:40:49.884Z,500.62
2023-04-23T11:41:49.981Z,500.62
2023-04-23T11:42:49.878Z,506.25
2023-04-23T11:43:49.801Z,511.88
2023-04-23T11:44:49.863Z,506.25
2023-04-23T11:45:49.957Z,506.25
2023-04-23T11:46:49.945Z,511.88
2023-04-23T11:47:49.867Z,517.50
2023-04-23T11:48:49.808Z,534.38
2023-04-23T11:49:49.781Z,545.62
2023-04-23T11:50:49.791Z,545.62
2023-04-23T11:51:49.856Z,545.62
2023-04-23T11:52:49.754Z,545.62
2023-04-23T11:53:49.623Z,545.62
2023-04-23T11:54:49.841Z,551.25
2023-04-23T11:55:49.719Z,545.62
2023-04-23T11:56:49.827Z,551.25
2023-04-23T11:57:49.637Z,540.00
2023-04-23T11:58:49.626Z,545.62
2023-04-23T11:59:49.722Z,556.88
2023-04-23T12:00:49.575Z,556.88
2023-04-23T12:01:49.585Z,562.50
2023-04-23T12:02:49.737Z,585.00
2023-04-23T12:03:49.836Z,590.62
2023-04-23T12:04:49.541Z,585.00
2023-04-23T12:05:49.489Z,556.88
2023-04-23T12:06:49.491Z,556.88
2023-04-23T12:07:49.440Z,545.62
2023-04-23T12:08:49.425Z,545.62
2023-04-23T12:09:49.390Z,551.25
2023-04-23T12:10:49.420Z,534.38
2023-04-23T12:11:49.390Z,511.88
2023-04-23T12:12:49.344Z,500.62
2023-04-23T12:13:49.432Z,511.88
2023-04-23T12:14:49.400Z,461.25
2023-04-23T12:15:49.356Z,466.88
2023-04-23T12:16:49.324Z,466.88
2023-04-23T12:17:49.298Z,506.25
2023-04-23T12:18:49.293Z,483.75
2023-04-23T12:19:49.293Z,466.88
2023-04-23T12:20:49.319Z,455.62
2023-04-23T12:21:49.236Z,466.88
2023-04-23T12:22:49.282Z,461.25
2023-04-23T12:23:49.236Z,450.00
2023-04-23T12:24:49.250Z,444.38
2023-04-23T12:25:49.212Z,450.00
2023-04-23T12:26:49.173Z,444.38
2023-04-23T12:27:49.179Z,450.00
2023-04-23T12:28:49.182Z,450.00
2023-04-23T12:29:49.155Z,450.00
2023-04-23T12:30:49.161Z,450.00
2023-04-23T12:31:49.185Z,450.00
2023-04-23T12:32:49.162Z,444.38
2023-04-23T12:33:49.085Z,438.75
2023-04-23T12:34:49.103Z,433.12
2023-04-23T12:35:49.135Z,444.38
2023-04-23T12:36:49.256Z,478.12
2023-04-23T12:37:49.051Z,517.50
2023-04-23T12:38:49.098Z,579.38
2023-04-23T12:39:48.974Z,601.88
2023-04-23T12:40:49.044Z,624.38
2023-04-23T12:41:49.017Z,641.25
2023-04-23T12:42:49.034Z,646.88
2023-04-23T12:43:48.990Z,500.62
2023-04-23T12:44:48.997Z,618.75
2023-04-23T12:45:48.907Z,601.88
2023-04-23T12:46:49.017Z,618.75
2023-04-23T12:47:49.030Z,635.62
2023-04-23T12:48:48.885Z,641.25
2023-04-23T12:49:48.882Z,607.50
2023-04-23T12:50:48.924Z,562.50
2023-04-23T12:51:48.945Z,556.88
2023-04-23T12:52:48.830Z,517.50
2023-04-23T12:53:48.861Z,562.50
2023-04-23T12:54:48.888Z,556.88
2023-04-23T12:55:48.812Z,562.50
2023-04-23T12:56:48.815Z,416.25
2023-04-23T12:57:48.750Z,348.75
2023-04-23T12:58:48.815Z,472.50
2023-04-23T12:59:48.798Z,331.88
2023-04-23T13:00:48.797Z,568.12
2023-04-23T13:01:48.801Z,556.88
2023-04-23T13:02:48.876Z,360.00
2023-04-23T13:03:48.745Z,646.88
2023-04-23T13:04:48.779Z,354.38
2023-04-23T13:05:48.694Z,331.88
2023-04-23T13:06:48.711Z,450.00
2023-04-23T13:07:48.781Z,360.00
2023-04-23T13:08:48.676Z,618.75
2023-04-23T13:09:48.642Z,624.38
2023-04-23T13:10:48.619Z,382.50
2023-04-23T13:11:48.595Z,343.12
2023-04-23T13:12:48.600Z,337.50
2023-04-23T13:13:48.556Z,331.88
2023-04-23T13:14:48.549Z,315.00
2023-04-23T13:15:48.552Z,309.38
2023-04-23T13:16:48.612Z,298.12
2023-04-23T13:17:48.503Z,275.62
2023-04-23T13:18:48.507Z,258.75
2023-04-23T13:19:48.558Z,275.62
2023-04-23T13:20:48.504Z,478.12
2023-04-23T13:21:48.455Z,315.00
2023-04-23T13:22:48.558Z,320.62
2023-04-23T13:23:48.546Z,331.88
2023-04-23T13:24:48.423Z,466.88
2023-04-23T13:25:48.391Z,545.62
2023-04-23T13:26:48.451Z,562.50
2023-04-23T13:27:48.377Z,500.62
2023-04-23T13:28:48.527Z,528.75
2023-04-23T13:29:48.321Z,337.50
2023-04-23T13:30:48.311Z,320.62
2023-04-23T13:31:48.341Z,348.75
2023-04-23T13:32:48.395Z,309.38
2023-04-23T13:33:48.316Z,303.75
2023-04-23T13:34:48.337Z,303.75
2023-04-23T13:35:48.263Z,337.50
2023-04-23T13:36:48.280Z,376.88
2023-04-23T13:37:48.270Z,326.25
2023-04-23T13:38:48.254Z,315.00
2023-04-23T13:39:48.270Z,315.00
2023-04-23T13:40:48.241Z,315.00
2023-04-23T13:41:59.152Z,309.38
2023-04-23T13:42:49.177Z,320.62
2023-04-23T13:43:48.169Z,331.88
2023-04-23T13:44:48.193Z,343.12
2023-04-23T13:45:48.176Z,348.75
2023-04-23T13:46:48.163Z,354.38
2023-04-23T13:47:48.189Z,337.50
2023-04-23T13:48:48.067Z,376.88
2023-04-23T13:49:48.063Z,360.00
2023-04-23T13:50:48.069Z,388.12
2023-04-23T13:51:48.127Z,444.38
2023-04-23T13:52:48.069Z,450.00
2023-04-23T13:53:48.065Z,410.62
2023-04-23T13:54:48.272Z,438.75
2023-04-23T13:55:48.035Z,438.75
2023-04-23T13:56:47.972Z,438.75
2023-04-23T13:57:48.002Z,421.88
2023-04-23T13:58:47.977Z,421.88
2023-04-23T13:59:48.005Z,421.88
2023-04-23T14:00:48.198Z,410.62
2023-04-23T14:01:48.050Z,410.62
2023-04-23T14:02:48.343Z,410.62
2023-04-23T14:03:48.310Z,410.62
2023-04-23T14:04:48.013Z,410.62
2023-04-23T14:05:47.924Z,399.38
2023-04-23T14:06:47.884Z,393.75
2023-04-23T14:07:47.887Z,410.62
2023-04-23T14:08:47.893Z,376.88
2023-04-23T14:09:48.089Z,388.12
2023-04-23T14:10:47.965Z,393.75
2023-04-23T14:11:47.761Z,376.88
2023-04-23T14:12:47.852Z,393.75
2023-04-23T14:13:47.871Z,376.88
2023-04-23T14:14:47.821Z,376.88
2023-04-23T14:15:47.796Z,405.00
2023-04-23T14:16:47.789Z,421.88
2023-04-23T14:17:47.790Z,427.50
2023-04-23T14:18:47.809Z,450.00
2023-04-23T14:19:47.740Z,444.38
2023-04-23T14:20:47.723Z,399.38
2023-04-23T14:21:47.780Z,388.12
2023-04-23T14:22:47.720Z,382.50
2023-04-23T14:23:47.617Z,382.50
2023-04-23T14:24:47.665Z,382.50
2023-04-23T14:25:47.720Z,382.50
2023-04-23T14:26:49.331Z,393.75
2023-04-23T14:27:47.566Z,371.25
2023-04-23T14:28:47.541Z,399.38
2023-04-23T14:29:47.553Z,399.38
2023-04-23T14:30:47.668Z,382.50
2023-04-23T14:31:47.486Z,382.50
2023-04-23T14:32:49.737Z,376.88
2023-04-23T14:33:47.531Z,360.00
2023-04-23T14:34:47.479Z,365.62
2023-04-23T14:35:47.442Z,365.62
2023-04-23T14:36:47.453Z,376.88
2023-04-23T14:37:47.418Z,371.25
2023-04-23T14:38:47.431Z,360.00
2023-04-23T14:39:47.409Z,360.00
2023-04-23T14:40:47.393Z,360.00
2023-04-23T14:41:47.355Z,348.75
2023-04-23T14:42:47.358Z,343.12
2023-04-23T14:43:47.331Z,337.50
2023-04-23T14:44:47.327Z,331.88
2023-04-23T14:45:47.411Z,320.62
2023-04-23T14:46:47.291Z,315.00
2023-04-23T14:47:47.291Z,298.12
2023-04-23T14:48:47.284Z,298.12
2023-04-23T14:49:47.288Z,292.50
2023-04-23T14:50:47.234Z,286.88
2023-04-23T14:51:47.219Z,281.25
2023-04-23T14:52:47.259Z,275.62
2023-04-23T14:53:47.251Z,275.62
2023-04-23T14:54:47.229Z,275.62
2023-04-23T14:55:47.163Z,270.00
2023-04-23T14:56:47.225Z,264.38
2023-04-23T14:57:47.153Z,258.75
2023-04-23T14:58:47.156Z,253.12
2023-04-23T14:59:47.123Z,241.88
2023-04-23T15:00:47.137Z,225.00
2023-04-23T15:01:47.103Z,208.12
2023-04-23T15:02:47.299Z,185.62
2023-04-23T15:03:47.315Z,174.38
2023-04-23T15:04:47.065Z,168.75
2023-04-23T15:05:47.069Z,168.75
2023-04-23T15:06:47.026Z,168.75
2023-04-23T15:07:47.043Z,174.38
2023-04-23T15:08:47.043Z,174.38
2023-04-23T15:09:46.991Z,185.62
2023-04-23T15:10:46.959Z,202.50
2023-04-23T15:11:46.950Z,219.38
2023-04-23T15:12:47.008Z,230.62
2023-04-23T15:13:46.964Z,230.62
2023-04-23T15:14:47.063Z,225.00
2023-04-23T15:15:46.911Z,213.75
2023-04-23T15:16:49.364Z,196.88
2023-04-23T15:17:46.937Z,180.00
2023-04-23T15:18:46.869Z,168.75
2023-04-23T15:19:46.894Z,163.12
2023-04-23T15:20:46.878Z,163.12
2023-04-23T15:21:47.030Z,163.12
2023-04-23T15:22:46.801Z,151.88
2023-04-23T15:23:46.787Z,140.62
2023-04-23T15:24:46.787Z,123.75
2023-04-23T15:25:46.797Z,112.50
2023-04-23T15:26:46.822Z,101.25
2023-04-23T15:27:46.914Z,95.62
2023-04-23T15:28:46.744Z,90.00
2023-04-23T15:29:46.714Z,90.00
2023-04-23T15:30:46.723Z,90.00
2023-04-23T15:31:46.714Z,84.38
2023-04-23T15:32:46.772Z,78.75
2023-04-23T15:33:46.710Z,73.12
2023-04-23T15:34:46.727Z,73.12
2023-04-23T15:35:46.660Z,67.50
2023-04-23T15:36:46.653Z,67.50
2023-04-23T15:37:46.608Z,67.50
2023-04-23T15:38:46.638Z,67.50
2023-04-23T15:39:46.583Z,67.50
2023-04-23T15:40:46.612Z,61.88
2023-04-23T15:41:46.613Z,61.88
2023-04-23T15:42:46.747Z,56.25
2023-04-23T15:43:46.673Z,56.25
2023-04-23T15:44:46.639Z,56.25
2023-04-23T15:45:46.606Z,50.62
2023-04-23T15:46:46.595Z,56.25
2023-04-23T15:47:46.695Z,56.25
2023-04-23T15:48:46.504Z,56.25
2023-04-23T15:49:46.802Z,56.25
2023-04-23T15:50:46.651Z,56.25
2023-04-23T15:51:48.789Z,50.62
2023-04-23T15:52:48.600Z,50.62
2023-04-23T15:53:46.523Z,45.00
2023-04-23T15:54:56.630Z,45.00
2023-04-23T15:55:46.636Z,45.00
2023-04-23T15:56:46.660Z,50.62
2023-04-23T15:57:47.072Z,56.25
2023-04-23T15:58:55.156Z,56.25
2023-04-23T15:59:46.405Z,56.25
2023-04-23T16:00:46.503Z,50.62
2023-04-23T16:01:46.446Z,50.62
2023-04-23T16:02:46.481Z,50.62
2023-04-23T16:04:01.813Z,56.25
2023-04-23T16:04:47.537Z,56.25
2023-04-23T16:05:46.304Z,67.50
2023-04-23T16:06:46.327Z,78.75
2023-04-23T16:07:46.234Z,78.75
2023-04-23T16:08:46.247Z,78.75
2023-04-23T16:09:52.666Z,73.12
2023-04-23T16:10:52.747Z,73.12
2023-04-23T16:11:46.363Z,73.12
2023-04-23T16:12:46.302Z,78.75
2023-04-23T16:13:53.344Z,78.75
2023-04-23T16:15:07.592Z,78.75
2023-04-23T16:15:47.430Z,73.12
2023-04-23T16:16:46.457Z,73.12
2023-04-23T16:17:46.219Z,73.12
2023-04-23T16:18:46.896Z,73.12
2023-04-23T16:19:46.194Z,67.50
2023-04-23T16:20:46.479Z,61.88
2023-04-23T16:21:46.224Z,56.25
2023-04-23T16:23:07.885Z,56.25
2023-04-23T16:23:47.121Z,56.25
2023-04-23T16:24:46.263Z,56.25
2023-04-23T16:25:46.057Z,61.88
2023-04-23T16:26:46.069Z,61.88
2023-04-23T16:27:46.052Z,67.50
2023-04-23T16:28:51.897Z,84.38
2023-04-23T16:29:47.214Z,90.00
2023-04-23T16:30:46.080Z,90.00
2023-04-23T16:31:45.929Z,90.00
2023-04-23T16:32:45.964Z,84.38
2023-04-23T16:33:46.021Z,78.75
2023-04-23T16:34:45.968Z,73.12
2023-04-23T16:35:45.894Z,61.88
2023-04-23T16:36:46.324Z,61.88
2023-04-23T16:37:45.854Z,56.25
2023-04-23T16:38:47.994Z,56.25
2023-04-23T16:39:45.885Z,56.25
2023-04-23T16:40:45.811Z,61.88
2023-04-23T16:41:45.833Z,61.88
2023-04-23T16:42:45.782Z,67.50
2023-04-23T16:43:45.783Z,67.50
2023-04-23T16:44:45.741Z,61.88
2023-04-23T16:45:45.998Z,56.25
2023-04-23T16:46:46.140Z,56.25
2023-04-23T16:47:45.723Z,50.62
2023-04-23T16:48:45.703Z,45.00
2023-04-23T16:49:45.687Z,45.00
2023-04-23T16:50:45.793Z,39.38
2023-04-23T16:51:45.708Z,33.75
2023-04-23T16:52:45.666Z,33.75
2023-04-23T16:53:45.723Z,28.12
2023-04-23T16:54:45.676Z,28.12
2023-04-23T16:55:45.624Z,22.50
2023-04-23T16:56:45.624Z,22.50
2023-04-23T16:57:45.616Z,22.50
2023-04-23T16:58:45.704Z,22.50
2023-04-23T16:59:54.495Z,22.50
2023-04-23T17:00:45.693Z,22.50
2023-04-23T17:01:45.693Z,16.88
2023-04-23T17:02:45.644Z,16.88
2023-04-23T17:03:46.715Z,16.88
2023-04-23T17:04:45.874Z,16.88
2023-04-23T17:05:45.549Z,16.88
2023-04-23T17:06:45.436Z,16.88
2023-04-23T17:07:45.470Z,16.88
2023-04-23T17:08:45.416Z,22.50
2023-04-23T17:09:45.530Z,22.50
2023-04-23T17:10:45.915Z,22.50
2023-04-23T17:11:45.419Z,22.50
2023-04-23T17:12:45.414Z,22.50
2023-04-23T17:13:45.546Z,22.50
2023-04-23T17:14:45.355Z,22.50
2023-04-23T17:15:45.357Z,22.50
2023-04-23T17:16:45.301Z,22.50
2023-04-23T17:17:45.321Z,22.50
2023-04-23T17:18:45.294Z,22.50
2023-04-23T17:19:45.301Z,22.50
2023-04-23T17:20:45.286Z,22.50
2023-04-23T17:21:45.374Z,22.50
2023-04-23T17:22:45.312Z,28.12
2023-04-23T17:23:45.194Z,28.12
2023-04-23T17:24:45.380Z,28.12
2023-04-23T17:25:45.177Z,28.12
2023-04-23T17:26:45.175Z,28.12
2023-04-23T17:27:45.172Z,28.12
2023-04-23T17:28:45.146Z,28.12
2023-04-23T17:29:45.371Z,28.12
2023-04-23T17:30:45.100Z,28.12
2023-04-23T17:31:45.208Z,28.12
2023-04-23T17:32:45.089Z,28.12
2023-04-23T17:33:45.194Z,28.12
2023-04-23T17:34:45.833Z,28.12
2023-04-23T17:35:45.130Z,28.12